sensor_id;sensor_type;location;lat;lon;timestamp;temperature;humidity
23803;DHT22;12082;51.786;6.018;2022-09-09T00:02:00;14.00;99.90
23803;DHT22;12082;51.786;6.018;2022-09-09T00:04:37;14.00;99.90
23803;DHT22;12082;51.786;6.018;2022-09-09T00:10:09;13.70;99.90
23803;DHT22;12082;51.786;6.018;2022-09-09T00:15:37;13.60;99.90
23803;DHT22;12082;51.786;6.018;2022-09-09T00:23:35;13.40;99.90
23803;DHT22;12082;51.786;6.018;2022-09-09T00:26:18;13.30;99.90
23803;DHT22;12082;51.786;6.018;2022-09-09T00:31:34;13.50;99.90
23803;DHT22;12082;51.786;6.018;2022-09-09T00:34:16;13.30;99.90
23803;DHT22;12082;51.786;6.018;2022-09-09T00:36:43;13.30;99.90
23803;DHT22;12082;51.786;6.018;2022-09-09T00:44:33;13.40;99.90
23803;DHT22;12082;51.786;6.018;2022-09-09T00:49:51;13.30;99.90
23803;DHT22;12082;51.786;6.018;2022-09-09T00:55:42;13.30;99.90
23803;DHT22;12082;51.786;6.018;2022-09-09T00:58:10;13.30;99.90
23803;DHT22;12082;51.786;6.018;2022-09-09T01:00:43;13.10;99.90
23803;DHT22;12082;51.786;6.018;2022-09-09T01:06:00;13.20;99.90
23803;DHT22;12082;51.786;6.018;2022-09-09T01:11:26;13.30;99.90
23803;DHT22;12082;51.786;6.018;2022-09-09T01:14:27;13.30;99.90
23803;DHT22;12082;51.786;6.018;2022-09-09T01:16:59;13.30;99.90
23803;DHT22;12082;51.786;6.018;2022-09-09T01:19:52;13.40;99.90
23803;DHT22;12082;51.786;6.018;2022-09-09T01:26:03;13.20;99.90
23803;DHT22;12082;51.786;6.018;2022-09-09T01:28:31;13.30;99.90
23803;DHT22;12082;51.786;6.018;2022-09-09T01:31:00;13.30;99.90
23803;DHT22;12082;51.786;6.018;2022-09-09T01:33:27;13.30;99.90
23803;DHT22;12082;51.786;6.018;2022-09-09T01:36:04;13.40;99.90
23803;DHT22;12082;51.786;6.018;2022-09-09T01:38:32;13.20;99.90
23803;DHT22;12082;51.786;6.018;2022-09-09T01:40:58;13.20;99.90
23803;DHT22;12082;51.786;6.018;2022-09-09T01:43:25;13.60;99.90
23803;DHT22;12082;51.786;6.018;2022-09-09T01:45:54;13.20;99.90
23803;DHT22;12082;51.786;6.018;2022-09-09T01:48:21;13.10;99.90
23803;DHT22;12082;51.786;6.018;2022-09-09T01:50:48;13.40;99.90
23803;DHT22;12082;51.786;6.018;2022-09-09T01:53:15;13.30;99.90
23803;DHT22;12082;51.786;6.018;2022-09-09T01:55:47;13.70;99.90
23803;DHT22;12082;51.786;6.018;2022-09-09T02:01:12;13.20;99.90
23803;DHT22;12082;51.786;6.018;2022-09-09T02:03:46;13.30;99.90
23803;DHT22;12082;51.786;6.018;2022-09-09T02:06:25;13.50;99.90
23803;DHT22;12082;51.786;6.018;2022-09-09T02:08:54;13.40;99.90
23803;DHT22;12082;51.786;6.018;2022-09-09T02:11:25;13.80;99.90
23803;DHT22;12082;51.786;6.018;2022-09-09T02:13:57;13.30;99.90
23803;DHT22;12082;51.786;6.018;2022-09-09T02:16:39;13.70;99.90
23803;DHT22;12082;51.786;6.018;2022-09-09T02:19:24;13.40;99.90
23803;DHT22;12082;51.786;6.018;2022-09-09T02:21:54;14.00;99.90
23803;DHT22;12082;51.786;6.018;2022-09-09T02:24:21;13.80;99.90
23803;DHT22;12082;51.786;6.018;2022-09-09T02:26:50;13.30;99.90
23803;DHT22;12082;51.786;6.018;2022-09-09T02:29:28;13.60;99.90
23803;DHT22;12082;51.786;6.018;2022-09-09T02:32:00;13.40;99.90
23803;DHT22;12082;51.786;6.018;2022-09-09T02:34:29;13.30;99.90
23803;DHT22;12082;51.786;6.018;2022-09-09T02:36:57;14.20;99.90
23803;DHT22;12082;51.786;6.018;2022-09-09T02:39:25;13.20;99.90
23803;DHT22;12082;51.786;6.018;2022-09-09T02:41:51;13.30;99.90
23803;DHT22;12082;51.786;6.018;2022-09-09T02:44:18;13.70;99.90
23803;DHT22;12082;51.786;6.018;2022-09-09T02:55:23;13.30;99.90
23803;DHT22;12082;51.786;6.018;2022-09-09T02:57:52;13.30;99.90
23803;DHT22;12082;51.786;6.018;2022-09-09T03:00:26;13.30;99.90
23803;DHT22;12082;51.786;6.018;2022-09-09T03:02:53;13.30;99.90
23803;DHT22;12082;51.786;6.018;2022-09-09T03:05:20;13.80;99.90
23803;DHT22;12082;51.786;6.018;2022-09-09T03:07:46;13.60;99.90
23803;DHT22;12082;51.786;6.018;2022-09-09T03:10:11;13.30;99.90
23803;DHT22;12082;51.786;6.018;2022-09-09T03:12:37;13.40;99.90
23803;DHT22;12082;51.786;6.018;2022-09-09T03:15:02;14.00;99.90
23803;DHT22;12082;51.786;6.018;2022-09-09T03:17:28;13.50;99.90
23803;DHT22;12082;51.786;6.018;2022-09-09T03:19:54;13.70;99.90
23803;DHT22;12082;51.786;6.018;2022-09-09T03:22:20;14.30;99.90
23803;DHT22;12082;51.786;6.018;2022-09-09T03:24:46;13.30;99.90
23803;DHT22;12082;51.786;6.018;2022-09-09T03:27:12;14.00;99.90
23803;DHT22;12082;51.786;6.018;2022-09-09T03:29:39;13.70;99.90
23803;DHT22;12082;51.786;6.018;2022-09-09T03:32:05;13.90;99.90
23803;DHT22;12082;51.786;6.018;2022-09-09T03:34:31;14.30;99.90
23803;DHT22;12082;51.786;6.018;2022-09-09T03:36:57;13.70;99.90
23803;DHT22;12082;51.786;6.018;2022-09-09T03:39:22;14.60;99.90
23803;DHT22;12082;51.786;6.018;2022-09-09T03:41:48;13.70;99.90
23803;DHT22;12082;51.786;6.018;2022-09-09T03:44:14;14.10;99.90
23803;DHT22;12082;51.786;6.018;2022-09-09T03:46:39;13.60;99.90
23803;DHT22;12082;51.786;6.018;2022-09-09T03:49:05;13.60;99.90
23803;DHT22;12082;51.786;6.018;2022-09-09T03:51:31;13.70;99.90
23803;DHT22;12082;51.786;6.018;2022-09-09T03:53:56;14.80;99.90
23803;DHT22;12082;51.786;6.018;2022-09-09T03:56:23;13.70;99.90
23803;DHT22;12082;51.786;6.018;2022-09-09T03:58:49;14.50;99.90
23803;DHT22;12082;51.786;6.018;2022-09-09T04:01:15;14.60;99.90
23803;DHT22;12082;51.786;6.018;2022-09-09T04:03:43;14.10;99.90
23803;DHT22;12082;51.786;6.018;2022-09-09T04:06:10;14.10;99.90
23803;DHT22;12082;51.786;6.018;2022-09-09T04:08:37;14.10;99.90
23803;DHT22;12082;51.786;6.018;2022-09-09T04:11:04;14.00;99.90
23803;DHT22;12082;51.786;6.018;2022-09-09T04:13:32;13.90;99.90
23803;DHT22;12082;51.786;6.018;2022-09-09T04:16:00;14.00;99.90
23803;DHT22;12082;51.786;6.018;2022-09-09T04:18:27;14.00;99.90
23803;DHT22;12082;51.786;6.018;2022-09-09T04:20:53;14.40;99.90
23803;DHT22;12082;51.786;6.018;2022-09-09T04:23:20;14.30;99.90
23803;DHT22;12082;51.786;6.018;2022-09-09T04:25:54;14.80;99.90
23803;DHT22;12082;51.786;6.018;2022-09-09T04:28:22;14.00;99.90
23803;DHT22;12082;51.786;6.018;2022-09-09T04:30:48;14.10;99.90
23803;DHT22;12082;51.786;6.018;2022-09-09T04:33:15;14.20;99.90
23803;DHT22;12082;51.786;6.018;2022-09-09T04:35:45;14.20;99.90
23803;DHT22;12082;51.786;6.018;2022-09-09T04:38:11;15.00;99.90
23803;DHT22;12082;51.786;6.018;2022-09-09T04:40:37;15.40;99.90
23803;DHT22;12082;51.786;6.018;2022-09-09T04:43:08;14.60;99.90
23803;DHT22;12082;51.786;6.018;2022-09-09T04:45:34;14.10;99.90
23803;DHT22;12082;51.786;6.018;2022-09-09T04:48:00;14.20;99.90
23803;DHT22;12082;51.786;6.018;2022-09-09T04:50:26;14.20;99.90
23803;DHT22;12082;51.786;6.018;2022-09-09T04:52:51;14.30;99.90
23803;DHT22;12082;51.786;6.018;2022-09-09T04:55:17;14.70;99.90
23803;DHT22;12082;51.786;6.018;2022-09-09T04:57:43;14.80;99.90
23803;DHT22;12082;51.786;6.018;2022-09-09T05:00:09;14.50;99.90
23803;DHT22;12082;51.786;6.018;2022-09-09T05:02:39;14.30;99.90
23803;DHT22;12082;51.786;6.018;2022-09-09T05:05:05;14.20;99.90
23803;DHT22;12082;51.786;6.018;2022-09-09T05:07:31;14.30;99.90
23803;DHT22;12082;51.786;6.018;2022-09-09T05:09:57;14.30;99.90
23803;DHT22;12082;51.786;6.018;2022-09-09T05:12:23;14.40;99.90
23803;DHT22;12082;51.786;6.018;2022-09-09T05:14:51;14.30;99.90
23803;DHT22;12082;51.786;6.018;2022-09-09T05:17:16;14.60;99.90
23803;DHT22;12082;51.786;6.018;2022-09-09T05:19:42;14.50;99.90
23803;DHT22;12082;51.786;6.018;2022-09-09T05:22:08;14.90;99.90
23803;DHT22;12082;51.786;6.018;2022-09-09T05:24:34;14.40;99.90
23803;DHT22;12082;51.786;6.018;2022-09-09T05:26:59;14.40;99.90
23803;DHT22;12082;51.786;6.018;2022-09-09T05:29:27;14.40;99.90
23803;DHT22;12082;51.786;6.018;2022-09-09T05:31:53;14.40;99.90
23803;DHT22;12082;51.786;6.018;2022-09-09T05:34:18;14.60;99.90
23803;DHT22;12082;51.786;6.018;2022-09-09T05:36:44;14.50;99.90
23803;DHT22;12082;51.786;6.018;2022-09-09T05:39:10;14.60;99.90
23803;DHT22;12082;51.786;6.018;2022-09-09T05:41:37;14.50;99.90
23803;DHT22;12082;51.786;6.018;2022-09-09T05:44:02;14.70;99.90
23803;DHT22;12082;51.786;6.018;2022-09-09T05:46:28;14.50;99.90
23803;DHT22;12082;51.786;6.018;2022-09-09T05:48:54;15.00;99.90
23803;DHT22;12082;51.786;6.018;2022-09-09T05:51:22;14.70;99.90
23803;DHT22;12082;51.786;6.018;2022-09-09T05:53:50;14.90;99.90
23803;DHT22;12082;51.786;6.018;2022-09-09T05:56:22;14.70;99.90
23803;DHT22;12082;51.786;6.018;2022-09-09T05:58:49;15.30;99.90
23803;DHT22;12082;51.786;6.018;2022-09-09T06:01:17;14.70;99.90
23803;DHT22;12082;51.786;6.018;2022-09-09T06:03:45;14.80;99.90
23803;DHT22;12082;51.786;6.018;2022-09-09T06:06:13;14.80;99.90
23803;DHT22;12082;51.786;6.018;2022-09-09T06:08:41;15.50;99.90
23803;DHT22;12082;51.786;6.018;2022-09-09T06:11:38;15.30;99.90
23803;DHT22;12082;51.786;6.018;2022-09-09T06:14:05;15.00;99.90
23803;DHT22;12082;51.786;6.018;2022-09-09T06:16:31;15.10;99.90
23803;DHT22;12082;51.786;6.018;2022-09-09T06:19:02;15.30;99.90
23803;DHT22;12082;51.786;6.018;2022-09-09T06:21:34;15.60;99.90
23803;DHT22;12082;51.786;6.018;2022-09-09T06:24:01;15.50;99.90
23803;DHT22;12082;51.786;6.018;2022-09-09T06:26:30;15.30;99.90
23803;DHT22;12082;51.786;6.018;2022-09-09T06:28:56;15.40;99.90
23803;DHT22;12082;51.786;6.018;2022-09-09T06:31:25;15.70;99.90
23803;DHT22;12082;51.786;6.018;2022-09-09T06:33:52;15.50;99.90
23803;DHT22;12082;51.786;6.018;2022-09-09T06:36:20;15.80;99.90
23803;DHT22;12082;51.786;6.018;2022-09-09T06:38:46;16.50;99.90
23803;DHT22;12082;51.786;6.018;2022-09-09T06:41:14;15.90;99.90
23803;DHT22;12082;51.786;6.018;2022-09-09T06:43:40;16.50;99.90
23803;DHT22;12082;51.786;6.018;2022-09-09T06:46:09;16.90;99.90
23803;DHT22;12082;51.786;6.018;2022-09-09T06:48:35;16.70;99.90
23803;DHT22;12082;51.786;6.018;2022-09-09T06:51:08;16.30;99.90
23803;DHT22;12082;51.786;6.018;2022-09-09T06:53:35;16.40;99.90
23803;DHT22;12082;51.786;6.018;2022-09-09T06:58:40;16.60;99.90
23803;DHT22;12082;51.786;6.018;2022-09-09T07:01:14;16.70;99.90
23803;DHT22;12082;51.786;6.018;2022-09-09T07:03:41;17.30;99.90
23803;DHT22;12082;51.786;6.018;2022-09-09T07:06:09;17.60;99.90
23803;DHT22;12082;51.786;6.018;2022-09-09T07:08:39;17.40;99.90
23803;DHT22;12082;51.786;6.018;2022-09-09T07:11:07;17.30;99.90
23803;DHT22;12082;51.786;6.018;2022-09-09T07:13:33;17.90;99.90
23803;DHT22;12082;51.786;6.018;2022-09-09T07:16:06;18.00;99.90
23803;DHT22;12082;51.786;6.018;2022-09-09T07:18:32;18.20;99.90
23803;DHT22;12082;51.786;6.018;2022-09-09T07:20:58;18.60;99.90
23803;DHT22;12082;51.786;6.018;2022-09-09T07:23:24;18.70;99.90
23803;DHT22;12082;51.786;6.018;2022-09-09T07:25:50;18.40;99.90
23803;DHT22;12082;51.786;6.018;2022-09-09T07:28:17;18.20;99.90
23803;DHT22;12082;51.786;6.018;2022-09-09T07:30:43;18.00;99.90
23803;DHT22;12082;51.786;6.018;2022-09-09T07:33:09;18.40;99.90
23803;DHT22;12082;51.786;6.018;2022-09-09T07:35:38;18.30;99.90
23803;DHT22;12082;51.786;6.018;2022-09-09T07:38:03;18.80;99.90
23803;DHT22;12082;51.786;6.018;2022-09-09T07:40:32;19.00;99.90
23803;DHT22;12082;51.786;6.018;2022-09-09T07:42:57;19.70;99.90
23803;DHT22;12082;51.786;6.018;2022-09-09T07:45:24;20.40;99.90
23803;DHT22;12082;51.786;6.018;2022-09-09T07:47:50;20.70;99.90
23803;DHT22;12082;51.786;6.018;2022-09-09T07:50:15;20.70;99.90
23803;DHT22;12082;51.786;6.018;2022-09-09T07:52:41;20.70;99.90
23803;DHT22;12082;51.786;6.018;2022-09-09T07:55:07;21.00;99.90
23803;DHT22;12082;51.786;6.018;2022-09-09T07:57:32;21.20;99.90
23803;DHT22;12082;51.786;6.018;2022-09-09T07:59:58;21.10;99.90
23803;DHT22;12082;51.786;6.018;2022-09-09T08:02:24;21.40;99.90
23803;DHT22;12082;51.786;6.018;2022-09-09T08:04:50;21.50;99.90
23803;DHT22;12082;51.786;6.018;2022-09-09T08:07:17;20.60;99.90
23803;DHT22;12082;51.786;6.018;2022-09-09T08:09:42;19.90;99.90
23803;DHT22;12082;51.786;6.018;2022-09-09T08:12:09;19.30;99.90
23803;DHT22;12082;51.786;6.018;2022-09-09T08:14:36;18.80;99.90
23803;DHT22;12082;51.786;6.018;2022-09-09T08:17:02;19.20;99.90
23803;DHT22;12082;51.786;6.018;2022-09-09T08:19:27;18.90;99.90
23803;DHT22;12082;51.786;6.018;2022-09-09T08:21:55;18.70;99.90
23803;DHT22;12082;51.786;6.018;2022-09-09T08:24:20;18.50;99.90
23803;DHT22;12082;51.786;6.018;2022-09-09T08:26:47;18.30;99.90
23803;DHT22;12082;51.786;6.018;2022-09-09T08:29:16;17.90;99.90
23803;DHT22;12082;51.786;6.018;2022-09-09T08:31:47;18.20;99.90
23803;DHT22;12082;51.786;6.018;2022-09-09T08:34:14;18.10;99.90
23803;DHT22;12082;51.786;6.018;2022-09-09T08:36:42;18.20;99.90
23803;DHT22;12082;51.786;6.018;2022-09-09T08:39:09;18.90;99.90
23803;DHT22;12082;51.786;6.018;2022-09-09T08:57:50;18.50;99.90
23803;DHT22;12082;51.786;6.018;2022-09-09T09:00:17;19.10;99.90
23803;DHT22;12082;51.786;6.018;2022-09-09T09:02:56;18.70;99.90
23803;DHT22;12082;51.786;6.018;2022-09-09T09:05:54;19.10;99.90
23803;DHT22;12082;51.786;6.018;2022-09-09T09:08:43;19.10;99.90
23803;DHT22;12082;51.786;6.018;2022-09-09T09:11:10;19.20;99.90
23803;DHT22;12082;51.786;6.018;2022-09-09T09:13:59;19.00;99.90
23803;DHT22;12082;51.786;6.018;2022-09-09T09:16:38;18.90;99.90
23803;DHT22;12082;51.786;6.018;2022-09-09T09:19:05;19.20;99.90
23803;DHT22;12082;51.786;6.018;2022-09-09T09:21:39;19.20;99.90
23803;DHT22;12082;51.786;6.018;2022-09-09T09:26:43;18.80;99.90
23803;DHT22;12082;51.786;6.018;2022-09-09T09:29:12;18.80;99.90
23803;DHT22;12082;51.786;6.018;2022-09-09T09:31:38;19.50;99.90
23803;DHT22;12082;51.786;6.018;2022-09-09T09:34:04;18.90;99.90
23803;DHT22;12082;51.786;6.018;2022-09-09T09:36:44;19.10;99.90
23803;DHT22;12082;51.786;6.018;2022-09-09T09:39:32;19.30;99.90
23803;DHT22;12082;51.786;6.018;2022-09-09T09:42:16;19.50;99.90
23803;DHT22;12082;51.786;6.018;2022-09-09T09:44:42;19.50;99.90
23803;DHT22;12082;51.786;6.018;2022-09-09T09:47:20;19.70;99.90
23803;DHT22;12082;51.786;6.018;2022-09-09T09:49:53;20.00;99.90
23803;DHT22;12082;51.786;6.018;2022-09-09T09:52:24;19.80;99.90
23803;DHT22;12082;51.786;6.018;2022-09-09T09:54:52;20.10;99.90
23803;DHT22;12082;51.786;6.018;2022-09-09T09:57:18;20.20;99.90
23803;DHT22;12082;51.786;6.018;2022-09-09T09:59:49;19.90;99.90
23803;DHT22;12082;51.786;6.018;2022-09-09T10:04:42;19.10;99.90
23803;DHT22;12082;51.786;6.018;2022-09-09T10:07:21;19.30;99.90
23803;DHT22;12082;51.786;6.018;2022-09-09T10:09:54;19.00;99.90
23803;DHT22;12082;51.786;6.018;2022-09-09T10:18:05;18.70;99.90
23803;DHT22;12082;51.786;6.018;2022-09-09T10:23:29;18.70;99.90
23803;DHT22;12082;51.786;6.018;2022-09-09T10:34:30;18.30;99.90
23803;DHT22;12082;51.786;6.018;2022-09-09T10:37:02;18.40;99.90
23803;DHT22;12082;51.786;6.018;2022-09-09T10:39:38;18.70;99.90
23803;DHT22;12082;51.786;6.018;2022-09-09T10:42:16;18.60;99.90
23803;DHT22;12082;51.786;6.018;2022-09-09T10:50:09;18.80;99.90
23803;DHT22;12082;51.786;6.018;2022-09-09T10:55:20;18.60;99.90
23803;DHT22;12082;51.786;6.018;2022-09-09T10:57:52;19.40;99.90
23803;DHT22;12082;51.786;6.018;2022-09-09T11:00:42;19.10;99.90
23803;DHT22;12082;51.786;6.018;2022-09-09T11:03:19;18.90;99.90
23803;DHT22;12082;51.786;6.018;2022-09-09T11:06:31;18.80;99.90
23803;DHT22;12082;51.786;6.018;2022-09-09T11:09:01;18.90;99.90
23803;DHT22;12082;51.786;6.018;2022-09-09T11:11:34;19.10;99.90
23803;DHT22;12082;51.786;6.018;2022-09-09T11:14:13;19.10;99.90
23803;DHT22;12082;51.786;6.018;2022-09-09T11:17:02;18.70;99.90
23803;DHT22;12082;51.786;6.018;2022-09-09T11:19:40;18.60;99.90
23803;DHT22;12082;51.786;6.018;2022-09-09T11:22:07;18.40;99.90
23803;DHT22;12082;51.786;6.018;2022-09-09T11:24:42;18.60;99.90
23803;DHT22;12082;51.786;6.018;2022-09-09T11:35:17;17.50;99.90
23803;DHT22;12082;51.786;6.018;2022-09-09T11:40:38;17.00;99.90
23803;DHT22;12082;51.786;6.018;2022-09-09T11:43:05;17.00;99.90
23803;DHT22;12082;51.786;6.018;2022-09-09T11:45:35;17.60;99.90
23803;DHT22;12082;51.786;6.018;2022-09-09T11:48:03;16.80;99.90
23803;DHT22;12082;51.786;6.018;2022-09-09T11:50:35;16.80;99.90
23803;DHT22;12082;51.786;6.018;2022-09-09T11:53:18;16.80;99.90
23803;DHT22;12082;51.786;6.018;2022-09-09T11:55:59;16.70;99.90
23803;DHT22;12082;51.786;6.018;2022-09-09T11:58:25;16.90;99.90
23803;DHT22;12082;51.786;6.018;2022-09-09T12:00:51;16.50;99.90
23803;DHT22;12082;51.786;6.018;2022-09-09T12:08:50;16.40;99.90
23803;DHT22;12082;51.786;6.018;2022-09-09T12:11:27;16.70;99.90
23803;DHT22;12082;51.786;6.018;2022-09-09T12:13:55;16.40;99.90
23803;DHT22;12082;51.786;6.018;2022-09-09T12:19:12;16.50;99.90
23803;DHT22;12082;51.786;6.018;2022-09-09T12:21:58;16.80;99.90
23803;DHT22;12082;51.786;6.018;2022-09-09T12:24:49;16.70;99.90
23803;DHT22;12082;51.786;6.018;2022-09-09T12:27:31;17.20;99.90
23803;DHT22;12082;51.786;6.018;2022-09-09T12:30:10;17.40;99.90
23803;DHT22;12082;51.786;6.018;2022-09-09T12:32:37;16.90;99.90
23803;DHT22;12082;51.786;6.018;2022-09-09T12:37:38;16.90;99.90
23803;DHT22;12082;51.786;6.018;2022-09-09T12:40:53;17.70;99.90
23803;DHT22;12082;51.786;6.018;2022-09-09T12:43:21;16.80;99.90
23803;DHT22;12082;51.786;6.018;2022-09-09T12:45:49;17.00;99.90
23803;DHT22;12082;51.786;6.018;2022-09-09T12:48:18;17.20;99.90
23803;DHT22;12082;51.786;6.018;2022-09-09T12:50:50;17.50;99.90
23803;DHT22;12082;51.786;6.018;2022-09-09T12:53:27;18.00;99.90
23803;DHT22;12082;51.786;6.018;2022-09-09T12:56:05;17.70;99.90
23803;DHT22;12082;51.786;6.018;2022-09-09T12:58:33;17.40;99.90
23803;DHT22;12082;51.786;6.018;2022-09-09T13:00:59;17.40;99.90
23803;DHT22;12082;51.786;6.018;2022-09-09T13:03:26;17.50;99.90
23803;DHT22;12082;51.786;6.018;2022-09-09T13:05:53;17.40;99.90
23803;DHT22;12082;51.786;6.018;2022-09-09T13:08:19;18.00;99.90
23803;DHT22;12082;51.786;6.018;2022-09-09T13:13:23;17.90;99.90
23803;DHT22;12082;51.786;6.018;2022-09-09T13:15:56;18.60;99.90
23803;DHT22;12082;51.786;6.018;2022-09-09T13:18:28;17.60;99.90
23803;DHT22;12082;51.786;6.018;2022-09-09T13:20:55;17.80;99.90
23803;DHT22;12082;51.786;6.018;2022-09-09T13:23:26;18.50;99.90
23803;DHT22;12082;51.786;6.018;2022-09-09T13:26:00;17.90;99.90
23803;DHT22;12082;51.786;6.018;2022-09-09T13:28:28;18.00;99.90
23803;DHT22;12082;51.786;6.018;2022-09-09T13:31:02;18.20;99.90
23803;DHT22;12082;51.786;6.018;2022-09-09T13:33:38;17.90;99.90
23803;DHT22;12082;51.786;6.018;2022-09-09T13:36:08;18.40;99.90
23803;DHT22;12082;51.786;6.018;2022-09-09T13:38:38;18.00;99.90
23803;DHT22;12082;51.786;6.018;2022-09-09T13:41:06;18.00;99.90
23803;DHT22;12082;51.786;6.018;2022-09-09T13:43:52;18.30;99.90
23803;DHT22;12082;51.786;6.018;2022-09-09T13:46:35;18.00;99.90
23803;DHT22;12082;51.786;6.018;2022-09-09T13:51:46;17.80;99.90
23803;DHT22;12082;51.786;6.018;2022-09-09T13:54:17;17.60;99.90
23803;DHT22;12082;51.786;6.018;2022-09-09T13:56:44;17.60;99.90
23803;DHT22;12082;51.786;6.018;2022-09-09T13:59:13;17.50;99.90
23803;DHT22;12082;51.786;6.018;2022-09-09T14:01:39;17.30;99.90
23803;DHT22;12082;51.786;6.018;2022-09-09T14:04:05;17.60;99.90
23803;DHT22;12082;51.786;6.018;2022-09-09T14:06:32;18.00;99.90
23803;DHT22;12082;51.786;6.018;2022-09-09T14:08:58;17.30;99.90
23803;DHT22;12082;51.786;6.018;2022-09-09T14:11:24;17.30;99.90
23803;DHT22;12082;51.786;6.018;2022-09-09T14:13:50;16.90;99.90
23803;DHT22;12082;51.786;6.018;2022-09-09T14:16:19;17.00;99.90
23803;DHT22;12082;51.786;6.018;2022-09-09T14:18:45;17.60;99.90
23803;DHT22;12082;51.786;6.018;2022-09-09T14:21:11;16.60;99.90
23803;DHT22;12082;51.786;6.018;2022-09-09T14:23:38;16.80;99.90
23803;DHT22;12082;51.786;6.018;2022-09-09T14:26:05;16.80;99.90
23803;DHT22;12082;51.786;6.018;2022-09-09T14:28:31;16.70;99.90
23803;DHT22;12082;51.786;6.018;2022-09-09T14:30:59;17.10;99.90
23803;DHT22;12082;51.786;6.018;2022-09-09T14:33:26;18.00;99.90
23803;DHT22;12082;51.786;6.018;2022-09-09T14:35:59;18.20;99.90
23803;DHT22;12082;51.786;6.018;2022-09-09T14:38:26;19.00;99.90
23803;DHT22;12082;51.786;6.018;2022-09-09T14:40:53;19.40;99.90
23803;DHT22;12082;51.786;6.018;2022-09-09T14:43:19;19.00;99.90
23803;DHT22;12082;51.786;6.018;2022-09-09T14:45:45;18.90;99.90
23803;DHT22;12082;51.786;6.018;2022-09-09T14:48:13;19.20;99.90
23803;DHT22;12082;51.786;6.018;2022-09-09T14:50:40;19.00;99.90
23803;DHT22;12082;51.786;6.018;2022-09-09T14:53:07;19.00;99.90
23803;DHT22;12082;51.786;6.018;2022-09-09T14:55:34;19.00;99.90
23803;DHT22;12082;51.786;6.018;2022-09-09T14:58:00;18.90;99.90
23803;DHT22;12082;51.786;6.018;2022-09-09T15:00:26;18.70;99.90
23803;DHT22;12082;51.786;6.018;2022-09-09T15:02:53;19.20;99.90
23803;DHT22;12082;51.786;6.018;2022-09-09T15:05:19;19.10;99.90
23803;DHT22;12082;51.786;6.018;2022-09-09T15:07:45;19.00;99.90
23803;DHT22;12082;51.786;6.018;2022-09-09T15:10:10;18.90;99.90
23803;DHT22;12082;51.786;6.018;2022-09-09T15:12:37;19.10;99.90
23803;DHT22;12082;51.786;6.018;2022-09-09T15:15:04;18.50;99.90
23803;DHT22;12082;51.786;6.018;2022-09-09T15:17:30;18.10;99.90
23803;DHT22;12082;51.786;6.018;2022-09-09T15:19:56;18.50;99.90
23803;DHT22;12082;51.786;6.018;2022-09-09T15:22:22;19.10;99.90
23803;DHT22;12082;51.786;6.018;2022-09-09T15:24:49;19.40;99.90
23803;DHT22;12082;51.786;6.018;2022-09-09T15:27:15;19.10;99.90
23803;DHT22;12082;51.786;6.018;2022-09-09T15:29:41;19.70;99.90
23803;DHT22;12082;51.786;6.018;2022-09-09T15:32:07;19.60;99.90
23803;DHT22;12082;51.786;6.018;2022-09-09T15:34:33;19.30;99.90
23803;DHT22;12082;51.786;6.018;2022-09-09T15:36:59;19.10;99.90
23803;DHT22;12082;51.786;6.018;2022-09-09T15:39:25;18.80;99.90
23803;DHT22;12082;51.786;6.018;2022-09-09T15:41:50;17.90;99.90
23803;DHT22;12082;51.786;6.018;2022-09-09T15:44:17;17.80;99.90
23803;DHT22;12082;51.786;6.018;2022-09-09T15:46:46;17.80;99.90
23803;DHT22;12082;51.786;6.018;2022-09-09T15:51:41;18.60;99.90
23803;DHT22;12082;51.786;6.018;2022-09-09T15:54:09;17.60;99.90
23803;DHT22;12082;51.786;6.018;2022-09-09T15:56:35;17.30;99.90
23803;DHT22;12082;51.786;6.018;2022-09-09T15:59:01;17.60;99.90
23803;DHT22;12082;51.786;6.018;2022-09-09T16:01:31;17.20;99.90
23803;DHT22;12082;51.786;6.018;2022-09-09T16:03:58;17.50;99.90
23803;DHT22;12082;51.786;6.018;2022-09-09T16:06:25;16.90;99.90
23803;DHT22;12082;51.786;6.018;2022-09-09T16:08:53;17.40;99.90
23803;DHT22;12082;51.786;6.018;2022-09-09T16:11:22;18.10;99.90
23803;DHT22;12082;51.786;6.018;2022-09-09T16:13:50;17.40;99.90
23803;DHT22;12082;51.786;6.018;2022-09-09T16:16:19;17.10;99.90
23803;DHT22;12082;51.786;6.018;2022-09-09T16:18:49;17.20;99.90
23803;DHT22;12082;51.786;6.018;2022-09-09T16:21:22;16.80;99.90
23803;DHT22;12082;51.786;6.018;2022-09-09T16:23:50;16.80;99.90
23803;DHT22;12082;51.786;6.018;2022-09-09T16:26:16;16.80;99.90
23803;DHT22;12082;51.786;6.018;2022-09-09T16:28:42;17.10;99.90
23803;DHT22;12082;51.786;6.018;2022-09-09T16:31:10;16.80;99.90
23803;DHT22;12082;51.786;6.018;2022-09-09T16:33:36;17.30;99.90
23803;DHT22;12082;51.786;6.018;2022-09-09T16:36:07;16.30;99.90
23803;DHT22;12082;51.786;6.018;2022-09-09T16:38:33;15.90;99.90
23803;DHT22;12082;51.786;6.018;2022-09-09T16:40:59;15.90;99.90
23803;DHT22;12082;51.786;6.018;2022-09-09T16:43:25;15.40;99.90
23803;DHT22;12082;51.786;6.018;2022-09-09T16:45:51;15.80;99.90
23803;DHT22;12082;51.786;6.018;2022-09-09T16:48:16;15.20;99.90
23803;DHT22;12082;51.786;6.018;2022-09-09T16:50:42;15.60;99.90
23803;DHT22;12082;51.786;6.018;2022-09-09T16:53:07;16.30;99.90
23803;DHT22;12082;51.786;6.018;2022-09-09T16:55:43;15.20;99.90
23803;DHT22;12082;51.786;6.018;2022-09-09T16:58:12;15.50;99.90
23803;DHT22;12082;51.786;6.018;2022-09-09T17:00:38;15.80;99.90
23803;DHT22;12082;51.786;6.018;2022-09-09T17:03:03;15.30;99.90
23803;DHT22;12082;51.786;6.018;2022-09-09T17:05:29;15.70;99.90
23803;DHT22;12082;51.786;6.018;2022-09-09T17:07:55;15.70;99.90
23803;DHT22;12082;51.786;6.018;2022-09-09T17:10:23;15.60;99.90
23803;DHT22;12082;51.786;6.018;2022-09-09T17:12:49;15.50;99.90
23803;DHT22;12082;51.786;6.018;2022-09-09T17:15:15;16.00;99.90
23803;DHT22;12082;51.786;6.018;2022-09-09T17:17:40;15.70;99.90
23803;DHT22;12082;51.786;6.018;2022-09-09T17:20:09;16.20;99.90
23803;DHT22;12082;51.786;6.018;2022-09-09T17:22:35;15.60;99.90
23803;DHT22;12082;51.786;6.018;2022-09-09T17:25:00;15.90;99.90
23803;DHT22;12082;51.786;6.018;2022-09-09T17:27:26;15.90;99.90
23803;DHT22;12082;51.786;6.018;2022-09-09T17:29:51;15.30;99.90
23803;DHT22;12082;51.786;6.018;2022-09-09T17:32:17;15.00;99.90
23803;DHT22;12082;51.786;6.018;2022-09-09T17:34:43;15.50;99.90
23803;DHT22;12082;51.786;6.018;2022-09-09T17:37:10;15.00;99.90
23803;DHT22;12082;51.786;6.018;2022-09-09T17:39:35;15.60;99.90
23803;DHT22;12082;51.786;6.018;2022-09-09T17:42:01;15.10;99.90
23803;DHT22;12082;51.786;6.018;2022-09-09T17:44:27;15.00;99.90
23803;DHT22;12082;51.786;6.018;2022-09-09T17:46:54;15.60;99.90
23803;DHT22;12082;51.786;6.018;2022-09-09T17:49:21;15.50;99.90